Terminal Aerodrome Forecast
Issued by NWS

Home | Current Version | Previous Version | Text Only | Print | Product List | Glossary On
Versions: 1 2 3 4 5 6 7 8 9 10 11 12 13 14 15 16 17 18 19 20 21 22 23 24 25 26 27 28 29 30 31 32 33 34 35 36 37 38 39 40 41 42 43 44
000
FTUS46 KPQR 221911 AAD
TAFONP
TAF AMD
KONP 221911Z 2219/2318 22010KT 1SM BR OVC002
      TEMPO 2219/2222 1/2SM FG
     FM222200 20004KT 6SM BR SCT010 OVC040
     FM230700 19003KT 4SM BR OVC050
     FM230900 19010KT 4SM -RA BR OVC025=

USA.gov is the U.S. government's official web portal to all federal, state and local government web resources and services.